createdAt,value
2018-12-22T00:04:53.981Z,46.80
2018-12-22T00:09:57.274Z,45.75
2018-12-22T00:15:00.571Z,46.00
2018-12-22T00:20:04.001Z,46.88
2018-12-22T00:25:07.305Z,45.83
2018-12-22T00:30:10.614Z,46.36
2018-12-22T00:35:13.908Z,46.36
2018-12-22T00:40:17.217Z,46.26
2018-12-22T00:45:20.533Z,45.97
2018-12-22T00:50:23.835Z,45.85
2018-12-22T00:55:27.145Z,46.73
2018-12-22T01:00:30.439Z,46.29
2018-12-22T01:05:33.766Z,46.31
2018-12-22T01:10:37.053Z,46.60
2018-12-22T01:15:40.360Z,46.83
2018-12-22T01:20:43.677Z,46.85
2018-12-22T01:25:46.966Z,46.21
2018-12-22T01:30:50.265Z,46.48
2018-12-22T01:35:53.560Z,45.90
2018-12-22T01:40:56.852Z,46.73
2018-12-22T01:46:00.221Z,46.75
2018-12-22T01:51:03.513Z,46.69
2018-12-22T01:56:06.809Z,47.43
2018-12-22T02:01:10.102Z,46.49
2018-12-22T02:06:13.403Z,47.01
2018-12-22T02:11:16.701Z,47.12
2018-12-22T02:16:20.012Z,46.81
2018-12-22T02:21:23.292Z,46.92
2018-12-22T02:26:26.596Z,46.89
2018-12-22T02:31:29.905Z,46.84
2018-12-22T02:36:33.219Z,46.55
2018-12-22T02:41:36.532Z,46.42
2018-12-22T02:46:39.841Z,46.91
2018-12-22T02:51:43.137Z,46.88
2018-12-22T02:56:46.445Z,46.92
2018-12-22T03:01:49.745Z,46.43
2018-12-22T03:06:53.046Z,46.35
2018-12-22T03:11:56.354Z,46.48
2018-12-22T03:16:59.660Z,46.58
2018-12-22T03:22:02.958Z,46.99
2018-12-22T03:27:06.245Z,46.78
2018-12-22T03:32:09.570Z,46.84
2018-12-22T03:37:12.965Z,46.85
2018-12-22T03:42:16.257Z,46.72
2018-12-22T03:47:19.539Z,46.62
2018-12-22T03:52:22.821Z,47.01
2018-12-22T03:57:26.101Z,47.03
2018-12-22T04:02:29.384Z,46.55
2018-12-22T04:07:32.662Z,46.85
2018-12-22T04:12:35.941Z,47.18
2018-12-22T04:17:39.349Z,47.83
2018-12-22T04:22:42.630Z,47.68
2018-12-22T04:27:45.916Z,47.38
2018-12-22T04:32:49.219Z,47.46
2018-12-22T04:37:52.508Z,47.39
2018-12-22T04:42:55.800Z,47.94
2018-12-22T04:47:59.093Z,48.00
2018-12-22T04:53:02.377Z,47.75
2018-12-22T04:58:05.660Z,47.76
2018-12-22T05:03:08.937Z,48.06
2018-12-22T05:08:12.237Z,47.76
2018-12-22T05:13:15.513Z,47.67
2018-12-22T05:18:18.808Z,47.84
2018-12-22T05:23:22.085Z,47.77
2018-12-22T05:28:25.366Z,48.03
2018-12-22T05:33:28.649Z,48.30
2018-12-22T05:38:31.924Z,48.46
2018-12-22T05:43:35.191Z,48.68
2018-12-22T05:48:38.477Z,48.43
2018-12-22T05:53:41.761Z,48.14
2018-12-22T05:58:45.036Z,48.20
2018-12-22T06:03:48.320Z,48.27
2018-12-22T06:08:51.601Z,48.49
2018-12-22T06:13:54.893Z,48.57
2018-12-22T06:18:58.161Z,48.68
2018-12-22T06:24:01.446Z,48.57
2018-12-22T06:29:04.730Z,48.89
2018-12-22T06:34:08.005Z,49.00
2018-12-22T06:39:11.282Z,48.96
2018-12-22T06:44:14.572Z,49.00
2018-12-22T06:49:17.853Z,49.14
2018-12-22T06:54:21.664Z,49.10
2018-12-22T06:59:25.094Z,49.21
2018-12-22T07:04:28.387Z,49.11
2018-12-22T07:09:31.685Z,48.80
2018-12-22T07:14:35.013Z,49.00
2018-12-22T07:19:38.337Z,49.05
2018-12-22T07:24:41.781Z,49.01
2018-12-22T07:29:45.079Z,48.93
2018-12-22T07:34:48.374Z,49.14
2018-12-22T07:39:51.751Z,49.07
2018-12-22T07:44:55.174Z,48.94
2018-12-22T07:49:58.579Z,48.98
2018-12-22T07:55:01.894Z,49.07
2018-12-22T08:00:06.434Z,49.35
2018-12-22T08:05:09.724Z,44.72
2018-12-22T08:10:13.005Z,46.38
2018-12-22T08:15:16.456Z,47.48
2018-12-22T08:20:19.760Z,46.90
2018-12-22T08:25:23.064Z,43.58
2018-12-22T08:30:26.338Z,43.12
2018-12-22T08:35:29.800Z,43.10
2018-12-22T08:40:33.069Z,43.31
2018-12-22T08:45:36.369Z,44.01
2018-12-22T08:50:39.640Z,44.47
2018-12-22T08:55:43.076Z,44.75
2018-12-22T09:00:52.121Z,45.29
2018-12-22T09:05:51.656Z,45.77
2018-12-22T09:10:54.947Z,45.69
2018-12-22T09:15:58.253Z,46.23
2018-12-22T09:21:01.537Z,46.48
2018-12-22T09:26:04.841Z,46.40
2018-12-22T09:31:08.133Z,46.65
2018-12-22T09:36:11.421Z,47.08
2018-12-22T09:41:14.713Z,46.99
2018-12-22T09:46:18.037Z,47.33
2018-12-22T09:51:22.252Z,47.52
2018-12-22T09:56:25.549Z,47.29
2018-12-22T10:01:29.086Z,47.54
2018-12-22T10:06:32.455Z,47.25
2018-12-22T10:11:35.813Z,47.01
2018-12-22T10:16:39.124Z,47.53
2018-12-22T10:21:42.657Z,47.50
2018-12-22T10:26:45.958Z,47.68
2018-12-22T10:31:49.260Z,47.61
2018-12-22T10:36:52.557Z,47.70
2018-12-22T10:41:55.932Z,48.05
2018-12-22T10:46:59.303Z,47.99
2018-12-22T10:52:02.596Z,47.99
2018-12-22T10:57:06.027Z,48.16
2018-12-22T11:02:09.390Z,48.33
2018-12-22T11:07:12.755Z,48.36
2018-12-22T11:12:16.116Z,48.47
2018-12-22T11:17:19.449Z,48.36
2018-12-22T11:22:22.768Z,48.22
2018-12-22T11:27:26.127Z,48.41
2018-12-22T11:32:29.501Z,48.18
2018-12-22T11:37:32.809Z,48.40
2018-12-22T11:42:36.100Z,48.28
2018-12-22T11:48:09.506Z,48.63
2018-12-22T11:53:12.913Z,48.64
2018-12-22T11:58:16.996Z,49.18
2018-12-22T12:03:20.548Z,49.43
2018-12-22T12:08:23.938Z,49.48
2018-12-22T12:13:27.272Z,49.26
2018-12-22T12:18:45.360Z,49.65
2018-12-22T12:23:48.716Z,48.98
2018-12-22T12:28:52.065Z,49.50
2018-12-22T12:33:55.408Z,49.37
2018-12-22T12:38:58.953Z,48.21
2018-12-22T12:44:02.319Z,48.22
2018-12-22T12:49:05.670Z,48.73
2018-12-22T12:54:09.017Z,49.03
2018-12-22T12:59:12.374Z,49.15
2018-12-22T13:04:15.721Z,49.17
2018-12-22T13:09:19.060Z,48.83
2018-12-22T13:14:24.105Z,49.45
2018-12-22T13:19:27.470Z,49.14
2018-12-22T13:24:30.885Z,49.13
2018-12-22T13:29:34.185Z,49.04
2018-12-22T13:34:37.489Z,48.58
2018-12-22T13:39:40.813Z,49.14
2018-12-22T13:44:44.211Z,48.72
2018-12-22T13:49:47.624Z,49.02
2018-12-22T13:54:51.068Z,48.61
2018-12-22T13:59:54.363Z,48.88
2018-12-22T14:04:57.685Z,48.98
2018-12-22T14:10:01.026Z,47.79
2018-12-22T14:15:05.581Z,49.30
2018-12-22T14:20:12.273Z,48.71
2018-12-22T14:25:21.230Z,48.87
2018-12-22T14:30:24.545Z,48.90
2018-12-22T14:35:44.657Z,48.64
2018-12-22T14:40:48.807Z,49.16
2018-12-22T14:45:52.106Z,49.15
2018-12-22T14:50:55.485Z,49.54
2018-12-22T14:55:58.851Z,49.36
2018-12-22T15:01:02.196Z,49.32
2018-12-22T15:06:05.554Z,49.25
2018-12-22T15:11:08.894Z,49.65
2018-12-22T15:16:12.221Z,49.51
2018-12-22T15:21:15.681Z,49.50
2018-12-22T15:26:19.026Z,49.78
2018-12-22T15:31:22.360Z,49.55
2018-12-22T15:36:25.722Z,49.61
2018-12-22T15:41:29.033Z,49.62
2018-12-22T15:46:32.359Z,49.83
2018-12-22T15:51:35.698Z,49.99
2018-12-22T15:56:39.021Z,50.03
2018-12-22T16:01:42.330Z,49.80
2018-12-22T16:06:45.629Z,49.79
2018-12-22T16:11:48.957Z,48.74
2018-12-22T16:16:52.258Z,49.13
2018-12-22T16:22:01.955Z,49.33
2018-12-22T16:27:05.276Z,49.40
2018-12-22T16:32:09.071Z,48.63
2018-12-22T16:37:12.429Z,46.20
2018-12-22T16:42:15.747Z,48.20
2018-12-22T16:47:19.076Z,48.70
2018-12-22T16:52:22.377Z,48.65
2018-12-22T16:57:25.672Z,48.57
2018-12-22T17:02:52.913Z,47.99
2018-12-22T17:07:56.241Z,47.74
2018-12-22T17:12:59.575Z,47.65
2018-12-22T17:18:02.869Z,47.55
2018-12-22T17:23:25.072Z,47.96
2018-12-22T17:28:28.702Z,47.27
2018-12-22T17:33:32.261Z,48.19
2018-12-22T17:38:35.594Z,47.60
2018-12-22T17:43:40.493Z,47.51
2018-12-22T17:48:43.804Z,47.95
2018-12-22T17:53:47.130Z,47.16
2018-12-22T17:58:50.460Z,47.53
2018-12-22T18:03:53.864Z,46.89
2018-12-22T18:08:57.198Z,46.77
2018-12-22T18:14:00.505Z,46.52
2018-12-22T18:19:04.416Z,46.96
2018-12-22T18:24:07.750Z,46.17
2018-12-22T18:29:11.065Z,46.56
2018-12-22T18:34:14.406Z,47.00
2018-12-22T18:39:17.756Z,46.97
2018-12-22T18:44:21.085Z,46.92
2018-12-22T18:49:24.394Z,46.83
2018-12-22T18:54:27.743Z,46.67
2018-12-22T18:59:31.047Z,46.88
2018-12-22T19:04:34.361Z,46.67
2018-12-22T19:09:39.853Z,46.77
2018-12-22T19:14:54.436Z,46.48
2018-12-22T19:19:57.831Z,46.58
2018-12-22T19:25:01.207Z,46.00
2018-12-22T19:30:04.798Z,46.76
2018-12-22T19:35:08.113Z,46.35
2018-12-22T19:40:11.420Z,46.19
2018-12-22T19:45:14.735Z,46.48
2018-12-22T19:50:18.037Z,46.56
2018-12-22T19:55:21.355Z,46.66
2018-12-22T20:00:24.676Z,45.94
2018-12-22T20:05:27.980Z,46.42
2018-12-22T20:10:31.309Z,45.67
2018-12-22T20:15:34.704Z,46.29
2018-12-22T20:20:38.020Z,45.97
2018-12-22T20:25:42.622Z,46.37
2018-12-22T20:30:46.201Z,46.45
2018-12-22T20:35:49.520Z,46.38
2018-12-22T20:40:52.813Z,46.23
2018-12-22T20:45:56.206Z,46.44
2018-12-22T20:50:59.582Z,46.31
2018-12-22T20:56:02.902Z,46.58
2018-12-22T21:01:06.288Z,46.33
2018-12-22T21:06:18.426Z,46.35
2018-12-22T21:11:21.776Z,46.37
2018-12-22T21:16:25.110Z,46.88
2018-12-22T21:21:28.413Z,46.95
2018-12-22T21:26:31.740Z,46.46
2018-12-22T21:31:35.098Z,47.10
2018-12-22T21:36:38.436Z,47.16
2018-12-22T21:41:41.732Z,45.93
2018-12-22T21:46:45.094Z,46.74
2018-12-22T21:51:48.448Z,46.69
2018-12-22T21:56:51.766Z,46.24
2018-12-22T22:01:55.097Z,47.32
2018-12-22T22:06:58.446Z,46.98
2018-12-22T22:12:01.791Z,45.97
2018-12-22T22:17:05.263Z,46.56
2018-12-22T22:22:08.556Z,46.09
2018-12-22T22:27:12.021Z,46.59
2018-12-22T22:32:15.382Z,46.77
2018-12-22T22:37:18.695Z,46.76
2018-12-22T22:42:22.062Z,46.13
2018-12-22T22:47:25.483Z,46.48
2018-12-22T22:52:28.824Z,46.18
2018-12-22T22:57:32.194Z,46.48
2018-12-22T23:02:35.479Z,45.89
2018-12-22T23:07:38.765Z,46.18
2018-12-22T23:12:42.097Z,46.54
2018-12-22T23:17:45.410Z,46.51
2018-12-22T23:22:48.705Z,46.44
2018-12-22T23:27:52.014Z,46.74
2018-12-22T23:32:55.301Z,46.93
2018-12-22T23:37:58.629Z,45.79
2018-12-22T23:43:01.905Z,46.40
2018-12-22T23:48:05.226Z,45.59
2018-12-22T23:53:08.537Z,46.40
2018-12-22T23:58:11.934Z,45.83
